sensor_id;sensor_type;location;lat;lon;timestamp;P1;durP1;ratioP1;P2;durP2;ratioP2
75129;SDS011;63703;44.716;37.846;2023-03-26T00:01:06;42.47;;;19.33;;
75129;SDS011;63703;44.716;37.846;2023-03-26T00:03:38;34.63;;;15.85;;
75129;SDS011;63703;44.716;37.846;2023-03-26T00:06:08;45.75;;;18.10;;
75129;SDS011;63703;44.716;37.846;2023-03-26T00:08:37;46.35;;;20.20;;
75129;SDS011;63703;44.716;37.846;2023-03-26T00:11:05;43.97;;;17.40;;
75129;SDS011;63703;44.716;37.846;2023-03-26T00:13:33;38.58;;;16.75;;
75129;SDS011;63703;44.716;37.846;2023-03-26T00:15:59;39.80;;;15.18;;
75129;SDS011;63703;44.716;37.846;2023-03-26T00:18:26;43.75;;;17.38;;
75129;SDS011;63703;44.716;37.846;2023-03-26T00:20:56;43.70;;;17.17;;
75129;SDS011;63703;44.716;37.846;2023-03-26T00:23:23;41.78;;;16.77;;
75129;SDS011;63703;44.716;37.846;2023-03-26T00:25:51;44.10;;;16.92;;
75129;SDS011;63703;44.716;37.846;2023-03-26T00:28:17;49.92;;;18.63;;
75129;SDS011;63703;44.716;37.846;2023-03-26T00:30:46;44.38;;;17.88;;
75129;SDS011;63703;44.716;37.846;2023-03-26T00:33:14;40.60;;;15.90;;
75129;SDS011;63703;44.716;37.846;2023-03-26T00:35:43;43.58;;;16.30;;
75129;SDS011;63703;44.716;37.846;2023-03-26T00:38:12;44.30;;;18.67;;
75129;SDS011;63703;44.716;37.846;2023-03-26T00:40:39;45.60;;;18.52;;
75129;SDS011;63703;44.716;37.846;2023-03-26T00:43:11;43.58;;;17.90;;
75129;SDS011;63703;44.716;37.846;2023-03-26T00:45:44;39.28;;;15.40;;
75129;SDS011;63703;44.716;37.846;2023-03-26T00:48:11;44.53;;;16.95;;
75129;SDS011;63703;44.716;37.846;2023-03-26T00:50:37;41.50;;;17.42;;
75129;SDS011;63703;44.716;37.846;2023-03-26T00:53:03;48.50;;;18.67;;
75129;SDS011;63703;44.716;37.846;2023-03-26T00:55:29;40.25;;;16.08;;
75129;SDS011;63703;44.716;37.846;2023-03-26T00:57:56;37.33;;;15.02;;
75129;SDS011;63703;44.716;37.846;2023-03-26T01:00:33;66.22;;;20.35;;
75129;SDS011;63703;44.716;37.846;2023-03-26T01:03:01;72.35;;;20.75;;
75129;SDS011;63703;44.716;37.846;2023-03-26T01:08:12;71.63;;;20.73;;
75129;SDS011;63703;44.716;37.846;2023-03-26T01:10:43;73.97;;;20.38;;
75129;SDS011;63703;44.716;37.846;2023-03-26T01:13:18;83.57;;;20.13;;
75129;SDS011;63703;44.716;37.846;2023-03-26T01:15:47;71.97;;;21.77;;
75129;SDS011;63703;44.716;37.846;2023-03-26T01:18:21;62.42;;;20.10;;
75129;SDS011;63703;44.716;37.846;2023-03-26T01:20:54;68.05;;;20.88;;
75129;SDS011;63703;44.716;37.846;2023-03-26T01:23:37;68.07;;;20.60;;
75129;SDS011;63703;44.716;37.846;2023-03-26T01:26:10;72.75;;;21.08;;
75129;SDS011;63703;44.716;37.846;2023-03-26T01:28:48;73.22;;;21.10;;
75129;SDS011;63703;44.716;37.846;2023-03-26T01:31:22;77.25;;;21.27;;
75129;SDS011;63703;44.716;37.846;2023-03-26T01:34:15;75.53;;;22.00;;
75129;SDS011;63703;44.716;37.846;2023-03-26T01:37:03;74.63;;;22.85;;
75129;SDS011;63703;44.716;37.846;2023-03-26T01:39:52;67.55;;;20.55;;
75129;SDS011;63703;44.716;37.846;2023-03-26T01:42:27;69.05;;;21.48;;
75129;SDS011;63703;44.716;37.846;2023-03-26T01:45:10;65.82;;;19.58;;
75129;SDS011;63703;44.716;37.846;2023-03-26T01:47:41;65.47;;;19.30;;
75129;SDS011;63703;44.716;37.846;2023-03-26T01:50:10;70.38;;;21.70;;
75129;SDS011;63703;44.716;37.846;2023-03-26T01:52:36;69.75;;;19.65;;
75129;SDS011;63703;44.716;37.846;2023-03-26T01:55:02;56.95;;;20.38;;
75129;SDS011;63703;44.716;37.846;2023-03-26T01:57:34;56.80;;;18.80;;
75129;SDS011;63703;44.716;37.846;2023-03-26T02:06:09;65.82;;;21.13;;
75129;SDS011;63703;44.716;37.846;2023-03-26T02:08:33;64.55;;;18.40;;
75129;SDS011;63703;44.716;37.846;2023-03-26T02:11:09;57.00;;;17.75;;
75129;SDS011;63703;44.716;37.846;2023-03-26T02:13:38;64.10;;;20.90;;
75129;SDS011;63703;44.716;37.846;2023-03-26T02:16:06;59.58;;;18.63;;
75129;SDS011;63703;44.716;37.846;2023-03-26T02:18:36;58.28;;;19.70;;
75129;SDS011;63703;44.716;37.846;2023-03-26T02:21:11;66.30;;;20.58;;
75129;SDS011;63703;44.716;37.846;2023-03-26T02:23:45;68.82;;;20.52;;
75129;SDS011;63703;44.716;37.846;2023-03-26T02:26:14;68.22;;;21.90;;
75129;SDS011;63703;44.716;37.846;2023-03-26T02:29:17;75.10;;;22.13;;
75129;SDS011;63703;44.716;37.846;2023-03-26T02:31:46;69.28;;;21.17;;
75129;SDS011;63703;44.716;37.846;2023-03-26T02:34:13;63.03;;;23.58;;
75129;SDS011;63703;44.716;37.846;2023-03-26T02:36:47;70.25;;;20.80;;
75129;SDS011;63703;44.716;37.846;2023-03-26T02:39:13;70.20;;;22.40;;
75129;SDS011;63703;44.716;37.846;2023-03-26T02:41:41;53.25;;;19.60;;
75129;SDS011;63703;44.716;37.846;2023-03-26T02:44:09;68.78;;;22.27;;
75129;SDS011;63703;44.716;37.846;2023-03-26T02:46:54;66.95;;;22.88;;
75129;SDS011;63703;44.716;37.846;2023-03-26T02:49:38;66.35;;;21.55;;
75129;SDS011;63703;44.716;37.846;2023-03-26T02:52:04;50.65;;;18.25;;
75129;SDS011;63703;44.716;37.846;2023-03-26T02:54:32;53.80;;;18.55;;
75129;SDS011;63703;44.716;37.846;2023-03-26T02:57:20;55.40;;;20.65;;
75129;SDS011;63703;44.716;37.846;2023-03-26T03:00:04;51.53;;;20.63;;
75129;SDS011;63703;44.716;37.846;2023-03-26T03:02:44;51.92;;;18.08;;
75129;SDS011;63703;44.716;37.846;2023-03-26T03:05:41;50.47;;;16.80;;
75129;SDS011;63703;44.716;37.846;2023-03-26T03:08:13;58.92;;;20.15;;
75129;SDS011;63703;44.716;37.846;2023-03-26T03:10:58;46.65;;;18.85;;
75129;SDS011;63703;44.716;37.846;2023-03-26T03:13:50;46.58;;;19.65;;
75129;SDS011;63703;44.716;37.846;2023-03-26T03:16:22;49.40;;;19.23;;
75129;SDS011;63703;44.716;37.846;2023-03-26T03:18:48;55.85;;;19.23;;
75129;SDS011;63703;44.716;37.846;2023-03-26T03:21:20;48.10;;;16.48;;
75129;SDS011;63703;44.716;37.846;2023-03-26T03:23:46;48.80;;;17.10;;
75129;SDS011;63703;44.716;37.846;2023-03-26T03:26:14;45.75;;;17.80;;
75129;SDS011;63703;44.716;37.846;2023-03-26T03:28:49;47.15;;;18.17;;
75129;SDS011;63703;44.716;37.846;2023-03-26T03:31:16;51.20;;;19.98;;
75129;SDS011;63703;44.716;37.846;2023-03-26T03:33:42;43.88;;;16.63;;
75129;SDS011;63703;44.716;37.846;2023-03-26T03:36:12;41.10;;;16.17;;
75129;SDS011;63703;44.716;37.846;2023-03-26T03:38:40;33.92;;;14.48;;
75129;SDS011;63703;44.716;37.846;2023-03-26T03:41:08;38.15;;;14.43;;
75129;SDS011;63703;44.716;37.846;2023-03-26T03:43:38;35.00;;;15.20;;
75129;SDS011;63703;44.716;37.846;2023-03-26T03:46:14;32.00;;;13.48;;
75129;SDS011;63703;44.716;37.846;2023-03-26T03:48:47;29.40;;;14.18;;
75129;SDS011;63703;44.716;37.846;2023-03-26T03:51:22;32.53;;;13.52;;
75129;SDS011;63703;44.716;37.846;2023-03-26T03:54:00;37.40;;;17.38;;
75129;SDS011;63703;44.716;37.846;2023-03-26T03:56:44;32.58;;;14.10;;
75129;SDS011;63703;44.716;37.846;2023-03-26T03:59:29;32.22;;;15.25;;
75129;SDS011;63703;44.716;37.846;2023-03-26T04:01:56;31.20;;;13.50;;
75129;SDS011;63703;44.716;37.846;2023-03-26T04:04:44;29.00;;;13.45;;
75129;SDS011;63703;44.716;37.846;2023-03-26T04:07:16;30.05;;;14.52;;
75129;SDS011;63703;44.716;37.846;2023-03-26T04:10:14;29.23;;;11.40;;
75129;SDS011;63703;44.716;37.846;2023-03-26T04:13:03;28.63;;;12.27;;
75129;SDS011;63703;44.716;37.846;2023-03-26T04:15:50;29.27;;;12.05;;
75129;SDS011;63703;44.716;37.846;2023-03-26T04:18:16;28.92;;;14.27;;
75129;SDS011;63703;44.716;37.846;2023-03-26T04:20:44;28.45;;;11.82;;
75129;SDS011;63703;44.716;37.846;2023-03-26T04:23:25;26.05;;;10.35;;
75129;SDS011;63703;44.716;37.846;2023-03-26T04:26:03;27.35;;;12.43;;
75129;SDS011;63703;44.716;37.846;2023-03-26T04:28:52;26.77;;;11.32;;
75129;SDS011;63703;44.716;37.846;2023-03-26T04:31:25;29.15;;;12.57;;
75129;SDS011;63703;44.716;37.846;2023-03-26T04:33:56;26.88;;;12.70;;
75129;SDS011;63703;44.716;37.846;2023-03-26T04:36:31;26.45;;;10.65;;
75129;SDS011;63703;44.716;37.846;2023-03-26T04:38:59;28.30;;;12.18;;
75129;SDS011;63703;44.716;37.846;2023-03-26T04:41:48;31.63;;;14.18;;
75129;SDS011;63703;44.716;37.846;2023-03-26T04:44:18;28.00;;;12.57;;
75129;SDS011;63703;44.716;37.846;2023-03-26T04:47:00;28.80;;;13.05;;
75129;SDS011;63703;44.716;37.846;2023-03-26T04:49:32;26.48;;;12.50;;
75129;SDS011;63703;44.716;37.846;2023-03-26T04:51:58;35.58;;;13.27;;
75129;SDS011;63703;44.716;37.846;2023-03-26T04:54:43;27.95;;;12.55;;
75129;SDS011;63703;44.716;37.846;2023-03-26T04:57:14;29.92;;;14.18;;
75129;SDS011;63703;44.716;37.846;2023-03-26T04:59:47;34.25;;;14.27;;
75129;SDS011;63703;44.716;37.846;2023-03-26T05:02:13;27.13;;;12.65;;
75129;SDS011;63703;44.716;37.846;2023-03-26T05:04:51;28.17;;;12.50;;
75129;SDS011;63703;44.716;37.846;2023-03-26T05:07:19;27.33;;;12.20;;
75129;SDS011;63703;44.716;37.846;2023-03-26T05:09:53;29.17;;;12.07;;
75129;SDS011;63703;44.716;37.846;2023-03-26T05:12:32;26.42;;;12.05;;
75129;SDS011;63703;44.716;37.846;2023-03-26T05:15:06;25.10;;;11.18;;
75129;SDS011;63703;44.716;37.846;2023-03-26T05:17:52;20.15;;;10.40;;
75129;SDS011;63703;44.716;37.846;2023-03-26T05:20:27;24.60;;;11.63;;
75129;SDS011;63703;44.716;37.846;2023-03-26T05:22:54;27.00;;;13.43;;
75129;SDS011;63703;44.716;37.846;2023-03-26T05:25:27;26.85;;;11.60;;
75129;SDS011;63703;44.716;37.846;2023-03-26T05:27:53;23.50;;;11.50;;
75129;SDS011;63703;44.716;37.846;2023-03-26T05:30:23;24.08;;;11.55;;
75129;SDS011;63703;44.716;37.846;2023-03-26T05:32:54;25.00;;;11.38;;
75129;SDS011;63703;44.716;37.846;2023-03-26T05:35:26;23.20;;;11.75;;
75129;SDS011;63703;44.716;37.846;2023-03-26T05:37:53;22.08;;;9.88;;
75129;SDS011;63703;44.716;37.846;2023-03-26T05:40:22;20.90;;;9.20;;
75129;SDS011;63703;44.716;37.846;2023-03-26T05:43:07;20.02;;;9.75;;
75129;SDS011;63703;44.716;37.846;2023-03-26T05:45:37;22.90;;;9.65;;
75129;SDS011;63703;44.716;37.846;2023-03-26T05:48:25;28.35;;;13.63;;
75129;SDS011;63703;44.716;37.846;2023-03-26T05:50:53;19.85;;;9.98;;
75129;SDS011;63703;44.716;37.846;2023-03-26T05:53:21;30.25;;;11.68;;
75129;SDS011;63703;44.716;37.846;2023-03-26T05:56:23;23.08;;;12.50;;
75129;SDS011;63703;44.716;37.846;2023-03-26T05:59:07;27.40;;;15.10;;
75129;SDS011;63703;44.716;37.846;2023-03-26T06:01:52;27.05;;;12.88;;
75129;SDS011;63703;44.716;37.846;2023-03-26T06:04:48;25.77;;;13.25;;
75129;SDS011;63703;44.716;37.846;2023-03-26T06:07:46;28.92;;;16.23;;
75129;SDS011;63703;44.716;37.846;2023-03-26T06:10:14;26.92;;;15.43;;
75129;SDS011;63703;44.716;37.846;2023-03-26T06:12:40;27.73;;;14.32;;
75129;SDS011;63703;44.716;37.846;2023-03-26T06:15:06;27.08;;;13.27;;
75129;SDS011;63703;44.716;37.846;2023-03-26T06:17:46;20.63;;;10.95;;
75129;SDS011;63703;44.716;37.846;2023-03-26T06:20:30;26.20;;;13.27;;
75129;SDS011;63703;44.716;37.846;2023-03-26T06:22:56;22.30;;;12.13;;
75129;SDS011;63703;44.716;37.846;2023-03-26T06:25:40;21.88;;;12.23;;
75129;SDS011;63703;44.716;37.846;2023-03-26T06:28:20;20.27;;;8.77;;
75129;SDS011;63703;44.716;37.846;2023-03-26T06:30:58;24.15;;;12.63;;
75129;SDS011;63703;44.716;37.846;2023-03-26T06:33:31;20.25;;;10.90;;
75129;SDS011;63703;44.716;37.846;2023-03-26T06:35:58;18.27;;;10.18;;
75129;SDS011;63703;44.716;37.846;2023-03-26T06:38:24;21.73;;;10.77;;
75129;SDS011;63703;44.716;37.846;2023-03-26T06:40:50;22.02;;;11.75;;
75129;SDS011;63703;44.716;37.846;2023-03-26T06:43:25;19.23;;;10.57;;
75129;SDS011;63703;44.716;37.846;2023-03-26T06:45:57;21.88;;;12.57;;
75129;SDS011;63703;44.716;37.846;2023-03-26T06:48:38;20.58;;;11.55;;
75129;SDS011;63703;44.716;37.846;2023-03-26T06:51:23;25.10;;;12.68;;
75129;SDS011;63703;44.716;37.846;2023-03-26T06:54:24;21.00;;;9.95;;
75129;SDS011;63703;44.716;37.846;2023-03-26T06:56:55;22.88;;;10.82;;
75129;SDS011;63703;44.716;37.846;2023-03-26T06:59:24;22.48;;;11.63;;
75129;SDS011;63703;44.716;37.846;2023-03-26T07:02:09;21.05;;;10.95;;
75129;SDS011;63703;44.716;37.846;2023-03-26T07:04:54;19.88;;;10.30;;
75129;SDS011;63703;44.716;37.846;2023-03-26T07:07:38;21.77;;;10.95;;
75129;SDS011;63703;44.716;37.846;2023-03-26T07:10:23;23.65;;;10.80;;
75129;SDS011;63703;44.716;37.846;2023-03-26T07:13:15;20.90;;;10.65;;
75129;SDS011;63703;44.716;37.846;2023-03-26T07:15:41;19.08;;;10.68;;
75129;SDS011;63703;44.716;37.846;2023-03-26T07:18:36;16.08;;;7.20;;
75129;SDS011;63703;44.716;37.846;2023-03-26T07:21:05;18.52;;;8.35;;
75129;SDS011;63703;44.716;37.846;2023-03-26T07:23:32;13.50;;;7.38;;
75129;SDS011;63703;44.716;37.846;2023-03-26T07:29:17;14.15;;;7.82;;
75129;SDS011;63703;44.716;37.846;2023-03-26T07:32:34;12.77;;;8.43;;
75129;SDS011;63703;44.716;37.846;2023-03-26T07:48:28;10.02;;;5.20;;
75129;SDS011;63703;44.716;37.846;2023-03-26T07:51:31;10.57;;;4.95;;
75129;SDS011;63703;44.716;37.846;2023-03-26T07:54:07;9.90;;;4.38;;
75129;SDS011;63703;44.716;37.846;2023-03-26T07:57:00;9.32;;;4.97;;
75129;SDS011;63703;44.716;37.846;2023-03-26T08:00:11;12.63;;;4.63;;
75129;SDS011;63703;44.716;37.846;2023-03-26T08:09:01;10.00;;;5.20;;
75129;SDS011;63703;44.716;37.846;2023-03-26T08:22:40;11.48;;;6.15;;
75129;SDS011;63703;44.716;37.846;2023-03-26T08:30:44;12.65;;;5.60;;
75129;SDS011;63703;44.716;37.846;2023-03-26T08:33:12;18.40;;;6.07;;
75129;SDS011;63703;44.716;37.846;2023-03-26T08:35:42;10.88;;;5.72;;
75129;SDS011;63703;44.716;37.846;2023-03-26T08:38:10;10.80;;;5.75;;
75129;SDS011;63703;44.716;37.846;2023-03-26T09:03:29;10.77;;;4.70;;
75129;SDS011;63703;44.716;37.846;2023-03-26T09:25:24;13.68;;;5.22;;
75129;SDS011;63703;44.716;37.846;2023-03-26T09:31:03;12.93;;;5.55;;
75129;SDS011;63703;44.716;37.846;2023-03-26T09:33:55;13.25;;;5.30;;
75129;SDS011;63703;44.716;37.846;2023-03-26T09:39:28;10.13;;;5.93;;
75129;SDS011;63703;44.716;37.846;2023-03-26T09:42:22;11.48;;;5.32;;
75129;SDS011;63703;44.716;37.846;2023-03-26T09:58:18;10.32;;;5.55;;
75129;SDS011;63703;44.716;37.846;2023-03-26T10:03:48;11.77;;;6.70;;
75129;SDS011;63703;44.716;37.846;2023-03-26T10:12:44;11.55;;;5.85;;
75129;SDS011;63703;44.716;37.846;2023-03-26T10:18:23;10.20;;;4.32;;
75129;SDS011;63703;44.716;37.846;2023-03-26T10:21:05;10.45;;;4.78;;
75129;SDS011;63703;44.716;37.846;2023-03-26T10:23:45;12.55;;;3.08;;
75129;SDS011;63703;44.716;37.846;2023-03-26T10:37:29;9.80;;;4.57;;
75129;SDS011;63703;44.716;37.846;2023-03-26T10:56:34;11.80;;;6.13;;
75129;SDS011;63703;44.716;37.846;2023-03-26T10:59:10;13.95;;;6.85;;
75129;SDS011;63703;44.716;37.846;2023-03-26T11:07:28;15.50;;;7.70;;
75129;SDS011;63703;44.716;37.846;2023-03-26T11:10:02;30.15;;;21.65;;
75129;SDS011;63703;44.716;37.846;2023-03-26T11:26:49;8.88;;;3.70;;
75129;SDS011;63703;44.716;37.846;2023-03-26T11:29:28;7.40;;;3.97;;
75129;SDS011;63703;44.716;37.846;2023-03-26T11:32:08;9.80;;;4.78;;
75129;SDS011;63703;44.716;37.846;2023-03-26T11:37:36;16.67;;;10.65;;
75129;SDS011;63703;44.716;37.846;2023-03-26T11:40:11;9.43;;;4.75;;
75129;SDS011;63703;44.716;37.846;2023-03-26T11:42:40;9.90;;;4.43;;
75129;SDS011;63703;44.716;37.846;2023-03-26T11:45:27;6.30;;;2.63;;
75129;SDS011;63703;44.716;37.846;2023-03-26T11:50:41;10.60;;;3.78;;
75129;SDS011;63703;44.716;37.846;2023-03-26T11:53:14;8.38;;;4.35;;
75129;SDS011;63703;44.716;37.846;2023-03-26T11:55:47;8.75;;;4.05;;
75129;SDS011;63703;44.716;37.846;2023-03-26T11:58:42;12.65;;;6.78;;
75129;SDS011;63703;44.716;37.846;2023-03-26T12:01:20;10.80;;;5.15;;
75129;SDS011;63703;44.716;37.846;2023-03-26T12:04:04;9.65;;;4.95;;
75129;SDS011;63703;44.716;37.846;2023-03-26T12:06:37;7.95;;;4.13;;
75129;SDS011;63703;44.716;37.846;2023-03-26T12:09:13;7.43;;;2.92;;
75129;SDS011;63703;44.716;37.846;2023-03-26T12:11:41;10.60;;;4.90;;
75129;SDS011;63703;44.716;37.846;2023-03-26T12:14:12;10.82;;;4.78;;
75129;SDS011;63703;44.716;37.846;2023-03-26T12:16:55;10.88;;;4.93;;
75129;SDS011;63703;44.716;37.846;2023-03-26T12:19:22;6.78;;;3.45;;
75129;SDS011;63703;44.716;37.846;2023-03-26T12:21:49;9.98;;;3.90;;
75129;SDS011;63703;44.716;37.846;2023-03-26T12:24:50;6.95;;;3.40;;
75129;SDS011;63703;44.716;37.846;2023-03-26T12:27:24;13.68;;;6.18;;
75129;SDS011;63703;44.716;37.846;2023-03-26T12:29:58;9.38;;;3.90;;
75129;SDS011;63703;44.716;37.846;2023-03-26T12:32:37;8.52;;;4.03;;
75129;SDS011;63703;44.716;37.846;2023-03-26T12:35:09;13.98;;;6.70;;
75129;SDS011;63703;44.716;37.846;2023-03-26T12:37:43;9.68;;;5.25;;
75129;SDS011;63703;44.716;37.846;2023-03-26T12:40:30;9.15;;;3.38;;
75129;SDS011;63703;44.716;37.846;2023-03-26T12:43:20;8.60;;;3.67;;
75129;SDS011;63703;44.716;37.846;2023-03-26T12:45:47;12.07;;;6.75;;
75129;SDS011;63703;44.716;37.846;2023-03-26T12:48:18;9.32;;;3.88;;
75129;SDS011;63703;44.716;37.846;2023-03-26T12:59:50;12.32;;;4.85;;
75129;SDS011;63703;44.716;37.846;2023-03-26T13:08:09;115.78;;;83.10;;
75129;SDS011;63703;44.716;37.846;2023-03-26T13:10:47;18.55;;;9.25;;
75129;SDS011;63703;44.716;37.846;2023-03-26T13:13:31;15.18;;;7.53;;
75129;SDS011;63703;44.716;37.846;2023-03-26T13:16:15;23.27;;;12.30;;
75129;SDS011;63703;44.716;37.846;2023-03-26T13:19:09;24.52;;;13.20;;
75129;SDS011;63703;44.716;37.846;2023-03-26T13:27:34;18.83;;;8.23;;
75129;SDS011;63703;44.716;37.846;2023-03-26T13:35:42;29.55;;;18.60;;
75129;SDS011;63703;44.716;37.846;2023-03-26T13:43:28;21.52;;;7.72;;
75129;SDS011;63703;44.716;37.846;2023-03-26T13:46:23;17.98;;;7.40;;
75129;SDS011;63703;44.716;37.846;2023-03-26T13:49:13;20.77;;;7.10;;
75129;SDS011;63703;44.716;37.846;2023-03-26T13:51:42;23.88;;;12.18;;
75129;SDS011;63703;44.716;37.846;2023-03-26T13:56:46;24.13;;;8.05;;
75129;SDS011;63703;44.716;37.846;2023-03-26T14:01:54;25.83;;;9.45;;
75129;SDS011;63703;44.716;37.846;2023-03-26T14:09:39;23.55;;;10.18;;
75129;SDS011;63703;44.716;37.846;2023-03-26T14:12:30;19.55;;;7.32;;
75129;SDS011;63703;44.716;37.846;2023-03-26T14:15:04;25.17;;;11.35;;
75129;SDS011;63703;44.716;37.846;2023-03-26T14:31:41;30.25;;;9.23;;
75129;SDS011;63703;44.716;37.846;2023-03-26T14:40:26;31.20;;;11.15;;
75129;SDS011;63703;44.716;37.846;2023-03-26T14:48:36;30.15;;;10.20;;
75129;SDS011;63703;44.716;37.846;2023-03-26T14:51:07;34.33;;;11.48;;
75129;SDS011;63703;44.716;37.846;2023-03-26T14:53:45;31.25;;;9.68;;
75129;SDS011;63703;44.716;37.846;2023-03-26T14:59:07;40.42;;;12.45;;
75129;SDS011;63703;44.716;37.846;2023-03-26T15:13:12;33.65;;;10.82;;
75129;SDS011;63703;44.716;37.846;2023-03-26T15:30:13;36.88;;;9.07;;
75129;SDS011;63703;44.716;37.846;2023-03-26T15:44:22;45.65;;;10.93;;
75129;SDS011;63703;44.716;37.846;2023-03-26T15:49:40;37.85;;;9.55;;
75129;SDS011;63703;44.716;37.846;2023-03-26T15:52:34;68.65;;;11.50;;
75129;SDS011;63703;44.716;37.846;2023-03-26T16:00:51;31.15;;;8.93;;
75129;SDS011;63703;44.716;37.846;2023-03-26T16:03:46;34.97;;;10.13;;
75129;SDS011;63703;44.716;37.846;2023-03-26T16:06:30;27.42;;;7.70;;
75129;SDS011;63703;44.716;37.846;2023-03-26T16:09:29;28.52;;;6.95;;
75129;SDS011;63703;44.716;37.846;2023-03-26T16:12:23;28.00;;;6.13;;
75129;SDS011;63703;44.716;37.846;2023-03-26T16:15:26;18.27;;;5.82;;
75129;SDS011;63703;44.716;37.846;2023-03-26T16:31:19;13.35;;;3.90;;
75129;SDS011;63703;44.716;37.846;2023-03-26T16:36:34;12.55;;;3.95;;
75129;SDS011;63703;44.716;37.846;2023-03-26T16:41:58;20.35;;;7.80;;
75129;SDS011;63703;44.716;37.846;2023-03-26T16:53:24;13.32;;;5.28;;
75129;SDS011;63703;44.716;37.846;2023-03-26T16:58:54;10.05;;;3.28;;
75129;SDS011;63703;44.716;37.846;2023-03-26T17:04:19;12.32;;;5.13;;
75129;SDS011;63703;44.716;37.846;2023-03-26T17:06:54;8.82;;;4.90;;
75129;SDS011;63703;44.716;37.846;2023-03-26T17:20:28;10.70;;;3.72;;
75129;SDS011;63703;44.716;37.846;2023-03-26T17:37:02;8.73;;;4.35;;
75129;SDS011;63703;44.716;37.846;2023-03-26T17:42:25;9.75;;;4.55;;
75129;SDS011;63703;44.716;37.846;2023-03-26T17:44:52;10.50;;;5.07;;
75129;SDS011;63703;44.716;37.846;2023-03-26T17:50:10;7.28;;;3.33;;
75129;SDS011;63703;44.716;37.846;2023-03-26T17:52:56;7.97;;;4.65;;
75129;SDS011;63703;44.716;37.846;2023-03-26T17:55:29;9.15;;;3.58;;
75129;SDS011;63703;44.716;37.846;2023-03-26T17:58:02;6.82;;;3.45;;
75129;SDS011;63703;44.716;37.846;2023-03-26T18:00:40;8.50;;;4.65;;
75129;SDS011;63703;44.716;37.846;2023-03-26T18:03:28;6.53;;;3.45;;
75129;SDS011;63703;44.716;37.846;2023-03-26T18:06:03;10.35;;;5.10;;
75129;SDS011;63703;44.716;37.846;2023-03-26T18:09:02;17.63;;;3.95;;
75129;SDS011;63703;44.716;37.846;2023-03-26T18:17:22;6.30;;;3.40;;
75129;SDS011;63703;44.716;37.846;2023-03-26T18:19:52;7.40;;;2.78;;
75129;SDS011;63703;44.716;37.846;2023-03-26T18:24:54;8.07;;;3.67;;
75129;SDS011;63703;44.716;37.846;2023-03-26T18:29:58;6.00;;;3.00;;
75129;SDS011;63703;44.716;37.846;2023-03-26T18:32:27;6.22;;;2.22;;
75129;SDS011;63703;44.716;37.846;2023-03-26T18:35:18;8.05;;;2.95;;
75129;SDS011;63703;44.716;37.846;2023-03-26T18:37:46;6.30;;;2.05;;
75129;SDS011;63703;44.716;37.846;2023-03-26T18:40:17;7.07;;;1.80;;
75129;SDS011;63703;44.716;37.846;2023-03-26T18:42:54;5.18;;;2.00;;
75129;SDS011;63703;44.716;37.846;2023-03-26T18:45:26;6.78;;;2.90;;
75129;SDS011;63703;44.716;37.846;2023-03-26T18:47:58;6.45;;;3.25;;
75129;SDS011;63703;44.716;37.846;2023-03-26T18:50:35;8.75;;;3.30;;
75129;SDS011;63703;44.716;37.846;2023-03-26T18:53:04;6.82;;;3.15;;
75129;SDS011;63703;44.716;37.846;2023-03-26T18:55:33;8.18;;;2.83;;
75129;SDS011;63703;44.716;37.846;2023-03-26T18:58:19;5.55;;;1.85;;
75129;SDS011;63703;44.716;37.846;2023-03-26T19:01:00;5.30;;;2.80;;
75129;SDS011;63703;44.716;37.846;2023-03-26T19:03:36;8.93;;;3.30;;
75129;SDS011;63703;44.716;37.846;2023-03-26T19:06:09;8.32;;;2.53;;
75129;SDS011;63703;44.716;37.846;2023-03-26T19:08:38;5.25;;;2.95;;
75129;SDS011;63703;44.716;37.846;2023-03-26T19:11:07;4.85;;;2.30;;
75129;SDS011;63703;44.716;37.846;2023-03-26T19:13:35;5.93;;;2.00;;
75129;SDS011;63703;44.716;37.846;2023-03-26T19:18:46;6.22;;;2.25;;
75129;SDS011;63703;44.716;37.846;2023-03-26T19:21:14;4.85;;;2.05;;
75129;SDS011;63703;44.716;37.846;2023-03-26T19:23:42;6.13;;;2.65;;
75129;SDS011;63703;44.716;37.846;2023-03-26T19:26:09;5.22;;;2.63;;
75129;SDS011;63703;44.716;37.846;2023-03-26T19:28:37;6.10;;;2.72;;
75129;SDS011;63703;44.716;37.846;2023-03-26T19:31:08;4.32;;;1.77;;
75129;SDS011;63703;44.716;37.846;2023-03-26T19:33:40;11.27;;;3.03;;
75129;SDS011;63703;44.716;37.846;2023-03-26T19:36:18;4.40;;;1.67;;
75129;SDS011;63703;44.716;37.846;2023-03-26T19:38:49;4.97;;;2.95;;
75129;SDS011;63703;44.716;37.846;2023-03-26T19:43:57;5.15;;;2.28;;
75129;SDS011;63703;44.716;37.846;2023-03-26T19:46:25;5.35;;;2.67;;
75129;SDS011;63703;44.716;37.846;2023-03-26T19:48:54;4.15;;;2.13;;
75129;SDS011;63703;44.716;37.846;2023-03-26T19:51:30;4.38;;;2.10;;
75129;SDS011;63703;44.716;37.846;2023-03-26T19:53:57;5.40;;;2.80;;
75129;SDS011;63703;44.716;37.846;2023-03-26T19:56:25;5.57;;;3.22;;
75129;SDS011;63703;44.716;37.846;2023-03-26T19:58:51;6.20;;;3.45;;
75129;SDS011;63703;44.716;37.846;2023-03-26T20:01:25;3.45;;;1.92;;
75129;SDS011;63703;44.716;37.846;2023-03-26T20:03:54;5.55;;;2.63;;
75129;SDS011;63703;44.716;37.846;2023-03-26T20:06:23;4.97;;;2.60;;
75129;SDS011;63703;44.716;37.846;2023-03-26T20:08:53;4.10;;;2.58;;
75129;SDS011;63703;44.716;37.846;2023-03-26T20:13:47;8.30;;;2.55;;
75129;SDS011;63703;44.716;37.846;2023-03-26T20:16:30;6.22;;;2.80;;
75129;SDS011;63703;44.716;37.846;2023-03-26T20:18:58;8.15;;;2.88;;
75129;SDS011;63703;44.716;37.846;2023-03-26T20:21:28;5.57;;;2.53;;
75129;SDS011;63703;44.716;37.846;2023-03-26T20:24:12;5.88;;;3.05;;
75129;SDS011;63703;44.716;37.846;2023-03-26T20:26:40;6.57;;;4.05;;
75129;SDS011;63703;44.716;37.846;2023-03-26T20:29:06;4.95;;;2.67;;
75129;SDS011;63703;44.716;37.846;2023-03-26T20:31:32;5.40;;;2.60;;
75129;SDS011;63703;44.716;37.846;2023-03-26T20:33:58;5.00;;;1.90;;
75129;SDS011;63703;44.716;37.846;2023-03-26T20:36:24;6.68;;;3.22;;
75129;SDS011;63703;44.716;37.846;2023-03-26T20:38:51;5.93;;;3.45;;
75129;SDS011;63703;44.716;37.846;2023-03-26T20:41:18;5.30;;;2.17;;
75129;SDS011;63703;44.716;37.846;2023-03-26T20:43:47;7.82;;;3.35;;
75129;SDS011;63703;44.716;37.846;2023-03-26T20:46:23;7.03;;;2.58;;
75129;SDS011;63703;44.716;37.846;2023-03-26T20:48:50;6.25;;;3.20;;
75129;SDS011;63703;44.716;37.846;2023-03-26T20:51:16;7.97;;;3.25;;
75129;SDS011;63703;44.716;37.846;2023-03-26T20:53:44;6.40;;;3.20;;
75129;SDS011;63703;44.716;37.846;2023-03-26T20:58:40;5.93;;;3.42;;
75129;SDS011;63703;44.716;37.846;2023-03-26T21:01:10;6.65;;;3.70;;
75129;SDS011;63703;44.716;37.846;2023-03-26T21:03:39;7.45;;;4.47;;
75129;SDS011;63703;44.716;37.846;2023-03-26T21:06:07;5.90;;;3.90;;
75129;SDS011;63703;44.716;37.846;2023-03-26T21:08:38;8.50;;;3.58;;
75129;SDS011;63703;44.716;37.846;2023-03-26T21:14:05;6.97;;;2.97;;
75129;SDS011;63703;44.716;37.846;2023-03-26T21:16:53;6.57;;;3.97;;
75129;SDS011;63703;44.716;37.846;2023-03-26T21:19:19;9.60;;;4.85;;
75129;SDS011;63703;44.716;37.846;2023-03-26T21:27:16;9.50;;;4.88;;
75129;SDS011;63703;44.716;37.846;2023-03-26T21:29:52;7.63;;;4.43;;